sensor_id;sensor_type;location;lat;lon;timestamp;P1;durP1;ratioP1;P2;durP2;ratioP2
30647;SDS011;17683;53.360;9.736;2023-10-31T00:01:34;4.35;;;2.25;;
30647;SDS011;17683;53.360;9.736;2023-10-31T00:04:00;3.25;;;1.58;;
30647;SDS011;17683;53.360;9.736;2023-10-31T00:06:26;3.20;;;1.88;;
30647;SDS011;17683;53.360;9.736;2023-10-31T00:08:51;3.78;;;1.75;;
30647;SDS011;17683;53.360;9.736;2023-10-31T00:11:17;2.55;;;1.70;;
30647;SDS011;17683;53.360;9.736;2023-10-31T00:13:43;2.05;;;1.60;;
30647;SDS011;17683;53.360;9.736;2023-10-31T00:16:08;4.63;;;1.85;;
30647;SDS011;17683;53.360;9.736;2023-10-31T00:18:34;5.35;;;1.48;;
30647;SDS011;17683;53.360;9.736;2023-10-31T00:21:00;4.38;;;2.15;;
30647;SDS011;17683;53.360;9.736;2023-10-31T00:23:25;5.72;;;1.85;;
30647;SDS011;17683;53.360;9.736;2023-10-31T00:25:51;3.13;;;2.10;;
30647;SDS011;17683;53.360;9.736;2023-10-31T00:28:17;6.10;;;1.95;;
30647;SDS011;17683;53.360;9.736;2023-10-31T00:30:42;5.18;;;1.85;;
30647;SDS011;17683;53.360;9.736;2023-10-31T00:33:08;2.10;;;1.63;;
30647;SDS011;17683;53.360;9.736;2023-10-31T00:35:34;7.20;;;1.67;;
30647;SDS011;17683;53.360;9.736;2023-10-31T00:37:59;4.72;;;1.92;;
30647;SDS011;17683;53.360;9.736;2023-10-31T00:40:25;3.22;;;1.50;;
30647;SDS011;17683;53.360;9.736;2023-10-31T00:42:51;4.53;;;2.30;;
30647;SDS011;17683;53.360;9.736;2023-10-31T00:45:17;3.55;;;1.60;;
30647;SDS011;17683;53.360;9.736;2023-10-31T00:47:43;2.30;;;1.73;;
30647;SDS011;17683;53.360;9.736;2023-10-31T00:50:08;3.88;;;2.10;;
30647;SDS011;17683;53.360;9.736;2023-10-31T00:52:34;3.58;;;1.70;;
30647;SDS011;17683;53.360;9.736;2023-10-31T00:55:00;3.75;;;1.77;;
30647;SDS011;17683;53.360;9.736;2023-10-31T00:57:26;3.05;;;1.73;;
30647;SDS011;17683;53.360;9.736;2023-10-31T00:59:51;4.68;;;1.90;;
30647;SDS011;17683;53.360;9.736;2023-10-31T01:02:17;2.92;;;1.92;;
30647;SDS011;17683;53.360;9.736;2023-10-31T01:04:43;3.60;;;1.75;;
30647;SDS011;17683;53.360;9.736;2023-10-31T01:07:08;5.88;;;1.80;;
30647;SDS011;17683;53.360;9.736;2023-10-31T01:09:37;3.22;;;2.15;;
30647;SDS011;17683;53.360;9.736;2023-10-31T01:12:03;2.63;;;1.80;;
30647;SDS011;17683;53.360;9.736;2023-10-31T01:14:30;3.05;;;2.03;;
30647;SDS011;17683;53.360;9.736;2023-10-31T01:16:55;6.72;;;2.58;;
30647;SDS011;17683;53.360;9.736;2023-10-31T01:19:21;6.95;;;2.60;;
30647;SDS011;17683;53.360;9.736;2023-10-31T01:21:47;4.50;;;2.28;;
30647;SDS011;17683;53.360;9.736;2023-10-31T01:24:12;4.00;;;2.38;;
30647;SDS011;17683;53.360;9.736;2023-10-31T01:26:38;3.78;;;3.08;;
30647;SDS011;17683;53.360;9.736;2023-10-31T01:29:04;5.55;;;2.58;;
30647;SDS011;17683;53.360;9.736;2023-10-31T01:31:29;5.20;;;2.38;;
30647;SDS011;17683;53.360;9.736;2023-10-31T01:33:55;5.30;;;2.60;;
30647;SDS011;17683;53.360;9.736;2023-10-31T01:36:25;10.45;;;3.03;;
30647;SDS011;17683;53.360;9.736;2023-10-31T01:38:54;3.67;;;2.40;;
30647;SDS011;17683;53.360;9.736;2023-10-31T01:41:19;4.05;;;2.38;;
30647;SDS011;17683;53.360;9.736;2023-10-31T01:43:45;5.72;;;2.60;;
30647;SDS011;17683;53.360;9.736;2023-10-31T01:46:11;4.97;;;3.38;;
30647;SDS011;17683;53.360;9.736;2023-10-31T01:48:38;7.90;;;3.15;;
30647;SDS011;17683;53.360;9.736;2023-10-31T01:51:03;4.20;;;2.50;;
30647;SDS011;17683;53.360;9.736;2023-10-31T01:53:31;5.82;;;3.20;;
30647;SDS011;17683;53.360;9.736;2023-10-31T01:56:00;8.25;;;4.07;;
30647;SDS011;17683;53.360;9.736;2023-10-31T01:58:34;7.35;;;2.97;;
30647;SDS011;17683;53.360;9.736;2023-10-31T02:03:30;4.25;;;3.25;;
30647;SDS011;17683;53.360;9.736;2023-10-31T02:05:56;4.93;;;3.05;;
30647;SDS011;17683;53.360;9.736;2023-10-31T02:08:22;5.30;;;3.42;;
30647;SDS011;17683;53.360;9.736;2023-10-31T02:10:49;6.15;;;3.60;;
30647;SDS011;17683;53.360;9.736;2023-10-31T02:13:15;4.65;;;3.60;;
30647;SDS011;17683;53.360;9.736;2023-10-31T02:15:42;4.47;;;3.40;;
30647;SDS011;17683;53.360;9.736;2023-10-31T02:18:09;3.70;;;3.05;;
30647;SDS011;17683;53.360;9.736;2023-10-31T02:20:35;4.30;;;3.33;;
30647;SDS011;17683;53.360;9.736;2023-10-31T02:23:01;5.85;;;4.05;;
30647;SDS011;17683;53.360;9.736;2023-10-31T02:25:28;4.90;;;3.38;;
30647;SDS011;17683;53.360;9.736;2023-10-31T02:27:53;9.35;;;4.05;;
30647;SDS011;17683;53.360;9.736;2023-10-31T02:30:20;5.85;;;3.95;;
30647;SDS011;17683;53.360;9.736;2023-10-31T02:32:45;5.78;;;3.60;;
30647;SDS011;17683;53.360;9.736;2023-10-31T02:35:11;4.65;;;3.50;;
30647;SDS011;17683;53.360;9.736;2023-10-31T02:37:37;6.80;;;3.85;;
30647;SDS011;17683;53.360;9.736;2023-10-31T02:40:03;6.28;;;3.33;;
30647;SDS011;17683;53.360;9.736;2023-10-31T02:42:29;8.98;;;3.83;;
30647;SDS011;17683;53.360;9.736;2023-10-31T02:44:55;8.52;;;3.95;;
30647;SDS011;17683;53.360;9.736;2023-10-31T02:47:21;10.27;;;4.22;;
30647;SDS011;17683;53.360;9.736;2023-10-31T02:49:47;6.25;;;3.83;;
30647;SDS011;17683;53.360;9.736;2023-10-31T02:52:12;6.00;;;4.53;;
30647;SDS011;17683;53.360;9.736;2023-10-31T02:54:38;7.82;;;4.60;;
30647;SDS011;17683;53.360;9.736;2023-10-31T02:57:04;6.38;;;4.50;;
30647;SDS011;17683;53.360;9.736;2023-10-31T02:59:30;10.95;;;4.97;;
30647;SDS011;17683;53.360;9.736;2023-10-31T03:01:56;6.65;;;4.35;;
30647;SDS011;17683;53.360;9.736;2023-10-31T03:04:22;7.43;;;5.03;;
30647;SDS011;17683;53.360;9.736;2023-10-31T03:06:48;7.35;;;4.97;;
30647;SDS011;17683;53.360;9.736;2023-10-31T03:09:15;6.70;;;4.68;;
30647;SDS011;17683;53.360;9.736;2023-10-31T03:11:41;16.92;;;5.22;;
30647;SDS011;17683;53.360;9.736;2023-10-31T03:14:06;7.95;;;5.57;;
30647;SDS011;17683;53.360;9.736;2023-10-31T03:16:32;7.60;;;5.03;;
30647;SDS011;17683;53.360;9.736;2023-10-31T03:18:58;6.25;;;5.20;;
30647;SDS011;17683;53.360;9.736;2023-10-31T03:21:23;10.40;;;6.60;;
30647;SDS011;17683;53.360;9.736;2023-10-31T03:23:49;9.38;;;6.55;;
30647;SDS011;17683;53.360;9.736;2023-10-31T03:26:16;7.35;;;6.43;;
30647;SDS011;17683;53.360;9.736;2023-10-31T03:28:42;9.88;;;6.32;;
30647;SDS011;17683;53.360;9.736;2023-10-31T03:31:09;8.20;;;5.75;;
30647;SDS011;17683;53.360;9.736;2023-10-31T03:33:35;8.27;;;6.28;;
30647;SDS011;17683;53.360;9.736;2023-10-31T03:36:01;7.93;;;6.13;;
30647;SDS011;17683;53.360;9.736;2023-10-31T03:38:27;9.02;;;7.32;;
30647;SDS011;17683;53.360;9.736;2023-10-31T03:40:53;8.82;;;6.55;;
30647;SDS011;17683;53.360;9.736;2023-10-31T03:43:19;8.18;;;6.55;;
30647;SDS011;17683;53.360;9.736;2023-10-31T03:45:45;8.30;;;7.15;;
30647;SDS011;17683;53.360;9.736;2023-10-31T03:48:15;12.55;;;7.85;;
30647;SDS011;17683;53.360;9.736;2023-10-31T03:50:41;12.20;;;8.30;;
30647;SDS011;17683;53.360;9.736;2023-10-31T03:53:07;8.38;;;7.18;;
30647;SDS011;17683;53.360;9.736;2023-10-31T03:55:33;10.07;;;7.60;;
30647;SDS011;17683;53.360;9.736;2023-10-31T03:57:59;10.40;;;7.05;;
30647;SDS011;17683;53.360;9.736;2023-10-31T04:00:25;7.82;;;6.93;;
30647;SDS011;17683;53.360;9.736;2023-10-31T04:02:50;8.77;;;7.88;;
30647;SDS011;17683;53.360;9.736;2023-10-31T04:05:16;12.65;;;7.75;;
30647;SDS011;17683;53.360;9.736;2023-10-31T04:07:42;13.02;;;7.88;;
30647;SDS011;17683;53.360;9.736;2023-10-31T04:10:08;8.23;;;7.38;;
30647;SDS011;17683;53.360;9.736;2023-10-31T04:12:34;10.82;;;8.02;;
30647;SDS011;17683;53.360;9.736;2023-10-31T04:15:00;12.73;;;7.35;;
30647;SDS011;17683;53.360;9.736;2023-10-31T04:17:26;8.32;;;7.15;;
30647;SDS011;17683;53.360;9.736;2023-10-31T04:19:52;7.88;;;6.60;;
30647;SDS011;17683;53.360;9.736;2023-10-31T04:22:18;9.60;;;8.10;;
30647;SDS011;17683;53.360;9.736;2023-10-31T04:24:43;9.18;;;7.55;;
30647;SDS011;17683;53.360;9.736;2023-10-31T04:27:09;11.25;;;7.53;;
30647;SDS011;17683;53.360;9.736;2023-10-31T04:29:34;9.43;;;8.27;;
30647;SDS011;17683;53.360;9.736;2023-10-31T04:32:00;8.48;;;7.22;;
30647;SDS011;17683;53.360;9.736;2023-10-31T04:34:26;12.55;;;9.25;;
30647;SDS011;17683;53.360;9.736;2023-10-31T04:36:51;10.35;;;8.77;;
30647;SDS011;17683;53.360;9.736;2023-10-31T04:39:17;14.38;;;9.38;;
30647;SDS011;17683;53.360;9.736;2023-10-31T04:41:43;9.77;;;8.77;;
30647;SDS011;17683;53.360;9.736;2023-10-31T04:44:08;10.40;;;8.65;;
30647;SDS011;17683;53.360;9.736;2023-10-31T04:46:34;13.88;;;8.93;;
30647;SDS011;17683;53.360;9.736;2023-10-31T04:49:00;12.48;;;9.70;;
30647;SDS011;17683;53.360;9.736;2023-10-31T04:51:25;11.27;;;9.48;;
30647;SDS011;17683;53.360;9.736;2023-10-31T04:53:51;12.50;;;10.27;;
30647;SDS011;17683;53.360;9.736;2023-10-31T04:56:17;14.77;;;11.13;;
30647;SDS011;17683;53.360;9.736;2023-10-31T04:58:42;14.68;;;11.38;;
30647;SDS011;17683;53.360;9.736;2023-10-31T05:01:09;12.50;;;11.13;;
30647;SDS011;17683;53.360;9.736;2023-10-31T05:03:36;13.38;;;11.10;;
30647;SDS011;17683;53.360;9.736;2023-10-31T05:06:01;14.25;;;10.27;;
30647;SDS011;17683;53.360;9.736;2023-10-31T05:08:28;12.65;;;10.43;;
30647;SDS011;17683;53.360;9.736;2023-10-31T05:10:55;12.80;;;10.77;;
30647;SDS011;17683;53.360;9.736;2023-10-31T05:13:21;14.88;;;11.00;;
30647;SDS011;17683;53.360;9.736;2023-10-31T05:15:46;13.52;;;11.15;;
30647;SDS011;17683;53.360;9.736;2023-10-31T05:18:12;13.88;;;10.82;;
30647;SDS011;17683;53.360;9.736;2023-10-31T05:20:37;13.32;;;10.43;;
30647;SDS011;17683;53.360;9.736;2023-10-31T05:23:03;13.80;;;10.88;;
30647;SDS011;17683;53.360;9.736;2023-10-31T05:25:29;13.98;;;10.63;;
30647;SDS011;17683;53.360;9.736;2023-10-31T05:27:55;14.40;;;10.73;;
30647;SDS011;17683;53.360;9.736;2023-10-31T05:30:20;14.32;;;9.93;;
30647;SDS011;17683;53.360;9.736;2023-10-31T05:32:46;11.82;;;9.45;;
30647;SDS011;17683;53.360;9.736;2023-10-31T05:35:12;9.35;;;7.95;;
30647;SDS011;17683;53.360;9.736;2023-10-31T05:37:37;9.27;;;7.68;;
30647;SDS011;17683;53.360;9.736;2023-10-31T05:40:03;8.77;;;6.68;;
30647;SDS011;17683;53.360;9.736;2023-10-31T05:42:29;8.10;;;5.97;;
30647;SDS011;17683;53.360;9.736;2023-10-31T05:44:55;9.18;;;6.30;;
30647;SDS011;17683;53.360;9.736;2023-10-31T05:47:22;7.13;;;5.78;;
30647;SDS011;17683;53.360;9.736;2023-10-31T05:49:48;6.70;;;5.85;;
30647;SDS011;17683;53.360;9.736;2023-10-31T05:52:13;6.65;;;5.78;;
30647;SDS011;17683;53.360;9.736;2023-10-31T05:54:39;8.95;;;5.43;;
30647;SDS011;17683;53.360;9.736;2023-10-31T05:57:05;4.70;;;4.20;;
30647;SDS011;17683;53.360;9.736;2023-10-31T05:59:31;5.65;;;4.07;;
30647;SDS011;17683;53.360;9.736;2023-10-31T06:01:57;4.65;;;4.07;;
30647;SDS011;17683;53.360;9.736;2023-10-31T06:04:23;5.28;;;4.20;;
30647;SDS011;17683;53.360;9.736;2023-10-31T06:06:50;4.10;;;3.70;;
30647;SDS011;17683;53.360;9.736;2023-10-31T06:09:16;4.43;;;4.03;;
30647;SDS011;17683;53.360;9.736;2023-10-31T06:11:42;4.18;;;3.78;;
30647;SDS011;17683;53.360;9.736;2023-10-31T06:14:09;3.72;;;3.35;;
30647;SDS011;17683;53.360;9.736;2023-10-31T06:16:45;3.53;;;3.20;;
30647;SDS011;17683;53.360;9.736;2023-10-31T06:19:11;3.72;;;3.22;;
30647;SDS011;17683;53.360;9.736;2023-10-31T06:21:36;6.55;;;3.60;;
30647;SDS011;17683;53.360;9.736;2023-10-31T06:24:03;3.05;;;2.75;;
30647;SDS011;17683;53.360;9.736;2023-10-31T06:26:29;2.90;;;2.70;;
30647;SDS011;17683;53.360;9.736;2023-10-31T06:28:55;5.05;;;3.05;;
30647;SDS011;17683;53.360;9.736;2023-10-31T06:31:20;5.35;;;3.30;;
30647;SDS011;17683;53.360;9.736;2023-10-31T06:33:46;9.02;;;5.90;;
30647;SDS011;17683;53.360;9.736;2023-10-31T06:36:11;6.22;;;5.63;;
30647;SDS011;17683;53.360;9.736;2023-10-31T06:38:37;6.63;;;6.00;;
30647;SDS011;17683;53.360;9.736;2023-10-31T06:41:03;6.20;;;5.60;;
30647;SDS011;17683;53.360;9.736;2023-10-31T06:43:29;8.27;;;7.47;;
30647;SDS011;17683;53.360;9.736;2023-10-31T06:45:55;10.05;;;8.07;;
30647;SDS011;17683;53.360;9.736;2023-10-31T06:48:22;12.35;;;9.30;;
30647;SDS011;17683;53.360;9.736;2023-10-31T06:50:47;11.60;;;9.70;;
30647;SDS011;17683;53.360;9.736;2023-10-31T06:53:13;11.27;;;10.07;;
30647;SDS011;17683;53.360;9.736;2023-10-31T06:55:39;14.15;;;11.20;;
30647;SDS011;17683;53.360;9.736;2023-10-31T06:58:05;15.18;;;12.68;;
30647;SDS011;17683;53.360;9.736;2023-10-31T07:00:30;12.85;;;9.98;;
30647;SDS011;17683;53.360;9.736;2023-10-31T07:02:56;13.82;;;11.57;;
30647;SDS011;17683;53.360;9.736;2023-10-31T07:05:23;11.73;;;10.32;;
30647;SDS011;17683;53.360;9.736;2023-10-31T07:07:50;12.02;;;10.75;;
30647;SDS011;17683;53.360;9.736;2023-10-31T07:10:15;13.07;;;10.55;;
30647;SDS011;17683;53.360;9.736;2023-10-31T07:12:41;13.85;;;10.05;;
30647;SDS011;17683;53.360;9.736;2023-10-31T07:15:07;9.57;;;8.10;;
30647;SDS011;17683;53.360;9.736;2023-10-31T07:17:33;6.07;;;5.47;;
30647;SDS011;17683;53.360;9.736;2023-10-31T07:19:59;3.30;;;2.55;;
30647;SDS011;17683;53.360;9.736;2023-10-31T07:22:25;2.40;;;1.95;;
30647;SDS011;17683;53.360;9.736;2023-10-31T07:24:52;3.55;;;1.23;;
30647;SDS011;17683;53.360;9.736;2023-10-31T07:27:18;1.73;;;1.17;;
30647;SDS011;17683;53.360;9.736;2023-10-31T07:29:44;2.38;;;1.05;;
30647;SDS011;17683;53.360;9.736;2023-10-31T07:32:11;2.17;;;0.90;;
30647;SDS011;17683;53.360;9.736;2023-10-31T07:34:40;4.00;;;0.80;;
30647;SDS011;17683;53.360;9.736;2023-10-31T07:37:07;1.00;;;0.60;;
30647;SDS011;17683;53.360;9.736;2023-10-31T07:39:33;1.30;;;0.70;;
30647;SDS011;17683;53.360;9.736;2023-10-31T07:41:58;1.85;;;0.60;;
30647;SDS011;17683;53.360;9.736;2023-10-31T07:44:24;3.17;;;0.57;;
30647;SDS011;17683;53.360;9.736;2023-10-31T07:46:50;0.77;;;0.38;;
30647;SDS011;17683;53.360;9.736;2023-10-31T07:49:15;0.60;;;0.60;;
30647;SDS011;17683;53.360;9.736;2023-10-31T07:51:41;1.38;;;0.40;;
30647;SDS011;17683;53.360;9.736;2023-10-31T07:54:07;2.63;;;0.60;;
30647;SDS011;17683;53.360;9.736;2023-10-31T07:56:34;0.82;;;0.50;;
30647;SDS011;17683;53.360;9.736;2023-10-31T07:59:01;0.88;;;0.32;;
30647;SDS011;17683;53.360;9.736;2023-10-31T08:01:27;0.80;;;0.20;;
30647;SDS011;17683;53.360;9.736;2023-10-31T08:03:52;0.57;;;0.35;;
30647;SDS011;17683;53.360;9.736;2023-10-31T08:06:19;1.50;;;0.25;;
30647;SDS011;17683;53.360;9.736;2023-10-31T08:08:45;1.55;;;0.43;;
30647;SDS011;17683;53.360;9.736;2023-10-31T08:11:10;0.32;;;0.30;;
30647;SDS011;17683;53.360;9.736;2023-10-31T08:13:36;0.45;;;0.30;;
30647;SDS011;17683;53.360;9.736;2023-10-31T08:16:04;0.40;;;0.10;;
30647;SDS011;17683;53.360;9.736;2023-10-31T08:18:31;1.33;;;0.30;;
30647;SDS011;17683;53.360;9.736;2023-10-31T08:20:56;1.67;;;0.32;;
30647;SDS011;17683;53.360;9.736;2023-10-31T08:23:22;0.55;;;0.30;;
30647;SDS011;17683;53.360;9.736;2023-10-31T08:25:48;1.65;;;0.50;;
30647;SDS011;17683;53.360;9.736;2023-10-31T08:28:15;0.75;;;0.28;;
30647;SDS011;17683;53.360;9.736;2023-10-31T08:30:41;0.98;;;0.35;;
30647;SDS011;17683;53.360;9.736;2023-10-31T08:33:07;0.10;;;0.10;;
30647;SDS011;17683;53.360;9.736;2023-10-31T08:35:33;0.77;;;0.30;;
30647;SDS011;17683;53.360;9.736;2023-10-31T08:37:59;0.65;;;0.30;;
30647;SDS011;17683;53.360;9.736;2023-10-31T08:40:25;2.17;;;0.20;;
30647;SDS011;17683;53.360;9.736;2023-10-31T08:42:50;1.38;;;0.28;;
30647;SDS011;17683;53.360;9.736;2023-10-31T08:45:16;0.60;;;0.20;;
30647;SDS011;17683;53.360;9.736;2023-10-31T08:47:42;2.20;;;0.28;;
30647;SDS011;17683;53.360;9.736;2023-10-31T08:50:07;1.02;;;0.20;;
30647;SDS011;17683;53.360;9.736;2023-10-31T08:52:34;1.90;;;0.40;;
30647;SDS011;17683;53.360;9.736;2023-10-31T08:55:00;1.75;;;0.55;;
30647;SDS011;17683;53.360;9.736;2023-10-31T08:57:25;0.15;;;0.08;;
30647;SDS011;17683;53.360;9.736;2023-10-31T08:59:51;0.73;;;0.20;;
30647;SDS011;17683;53.360;9.736;2023-10-31T09:02:17;3.47;;;0.85;;
30647;SDS011;17683;53.360;9.736;2023-10-31T09:04:42;2.08;;;0.30;;
30647;SDS011;17683;53.360;9.736;2023-10-31T09:07:08;1.65;;;0.30;;
30647;SDS011;17683;53.360;9.736;2023-10-31T09:09:34;0.47;;;0.20;;
30647;SDS011;17683;53.360;9.736;2023-10-31T09:11:59;0.30;;;0.30;;
30647;SDS011;17683;53.360;9.736;2023-10-31T09:14:25;3.40;;;0.43;;
30647;SDS011;17683;53.360;9.736;2023-10-31T09:16:51;3.00;;;0.70;;
30647;SDS011;17683;53.360;9.736;2023-10-31T09:19:16;0.73;;;0.40;;
30647;SDS011;17683;53.360;9.736;2023-10-31T09:21:42;0.85;;;0.30;;
30647;SDS011;17683;53.360;9.736;2023-10-31T09:24:08;0.60;;;0.30;;
30647;SDS011;17683;53.360;9.736;2023-10-31T09:26:34;3.88;;;0.47;;
30647;SDS011;17683;53.360;9.736;2023-10-31T09:29:00;2.20;;;0.57;;
30647;SDS011;17683;53.360;9.736;2023-10-31T09:31:26;1.38;;;0.70;;
30647;SDS011;17683;53.360;9.736;2023-10-31T09:33:51;2.42;;;0.50;;
30647;SDS011;17683;53.360;9.736;2023-10-31T09:36:19;2.15;;;0.50;;
30647;SDS011;17683;53.360;9.736;2023-10-31T09:38:45;0.60;;;0.40;;
30647;SDS011;17683;53.360;9.736;2023-10-31T09:41:12;0.45;;;0.43;;
30647;SDS011;17683;53.360;9.736;2023-10-31T09:43:39;2.88;;;0.52;;
30647;SDS011;17683;53.360;9.736;2023-10-31T09:46:06;2.97;;;1.35;;
30647;SDS011;17683;53.360;9.736;2023-10-31T09:48:32;1.65;;;0.90;;
30647;SDS011;17683;53.360;9.736;2023-10-31T09:50:58;4.18;;;0.63;;
30647;SDS011;17683;53.360;9.736;2023-10-31T09:53:25;2.10;;;0.55;;
30647;SDS011;17683;53.360;9.736;2023-10-31T09:55:53;2.13;;;0.73;;
30647;SDS011;17683;53.360;9.736;2023-10-31T09:58:20;2.05;;;0.50;;
30647;SDS011;17683;53.360;9.736;2023-10-31T10:00:46;1.08;;;0.40;;
30647;SDS011;17683;53.360;9.736;2023-10-31T10:03:12;1.65;;;0.52;;
30647;SDS011;17683;53.360;9.736;2023-10-31T10:05:38;1.15;;;0.52;;
30647;SDS011;17683;53.360;9.736;2023-10-31T10:08:06;0.82;;;0.30;;
30647;SDS011;17683;53.360;9.736;2023-10-31T10:10:33;4.35;;;0.60;;
30647;SDS011;17683;53.360;9.736;2023-10-31T10:12:59;1.95;;;0.75;;
30647;SDS011;17683;53.360;9.736;2023-10-31T10:15:28;1.10;;;0.50;;
30647;SDS011;17683;53.360;9.736;2023-10-31T10:17:53;1.08;;;0.68;;
30647;SDS011;17683;53.360;9.736;2023-10-31T10:20:19;1.23;;;0.70;;
30647;SDS011;17683;53.360;9.736;2023-10-31T10:22:45;1.63;;;0.60;;
30647;SDS011;17683;53.360;9.736;2023-10-31T10:25:15;1.52;;;0.55;;
30647;SDS011;17683;53.360;9.736;2023-10-31T10:27:43;2.85;;;0.82;;
30647;SDS011;17683;53.360;9.736;2023-10-31T10:30:10;1.65;;;0.50;;
30647;SDS011;17683;53.360;9.736;2023-10-31T10:32:37;2.08;;;1.00;;
30647;SDS011;17683;53.360;9.736;2023-10-31T10:35:03;2.28;;;0.57;;
30647;SDS011;17683;53.360;9.736;2023-10-31T10:37:30;2.03;;;0.52;;
30647;SDS011;17683;53.360;9.736;2023-10-31T10:39:56;2.60;;;0.60;;
30647;SDS011;17683;53.360;9.736;2023-10-31T10:42:36;1.52;;;0.75;;
30647;SDS011;17683;53.360;9.736;2023-10-31T10:45:13;2.67;;;0.60;;
30647;SDS011;17683;53.360;9.736;2023-10-31T10:47:41;1.00;;;0.70;;
30647;SDS011;17683;53.360;9.736;2023-10-31T10:50:11;2.00;;;0.77;;
30647;SDS011;17683;53.360;9.736;2023-10-31T10:52:41;1.30;;;0.45;;
30647;SDS011;17683;53.360;9.736;2023-10-31T10:55:13;1.30;;;0.43;;
30647;SDS011;17683;53.360;9.736;2023-10-31T11:00:21;2.75;;;1.52;;
30647;SDS011;17683;53.360;9.736;2023-10-31T11:02:50;2.13;;;0.80;;
30647;SDS011;17683;53.360;9.736;2023-10-31T11:05:17;2.45;;;0.85;;
30647;SDS011;17683;53.360;9.736;2023-10-31T11:07:44;2.40;;;0.60;;
30647;SDS011;17683;53.360;9.736;2023-10-31T11:10:11;3.63;;;0.82;;
30647;SDS011;17683;53.360;9.736;2023-10-31T11:12:37;2.72;;;0.80;;
30647;SDS011;17683;53.360;9.736;2023-10-31T11:15:06;2.78;;;0.82;;
30647;SDS011;17683;53.360;9.736;2023-10-31T11:17:39;4.40;;;0.90;;
30647;SDS011;17683;53.360;9.736;2023-10-31T11:20:07;2.55;;;1.52;;
30647;SDS011;17683;53.360;9.736;2023-10-31T11:22:45;2.75;;;0.82;;
30647;SDS011;17683;53.360;9.736;2023-10-31T11:25:23;1.20;;;0.70;;
30647;SDS011;17683;53.360;9.736;2023-10-31T11:27:50;1.52;;;0.60;;
30647;SDS011;17683;53.360;9.736;2023-10-31T11:35:19;4.00;;;0.65;;
30647;SDS011;17683;53.360;9.736;2023-10-31T11:37:49;3.17;;;0.70;;
30647;SDS011;17683;53.360;9.736;2023-10-31T11:40:26;1.85;;;0.60;;
30647;SDS011;17683;53.360;9.736;2023-10-31T11:42:53;4.38;;;1.10;;
30647;SDS011;17683;53.360;9.736;2023-10-31T11:45:25;1.98;;;0.50;;
30647;SDS011;17683;53.360;9.736;2023-10-31T11:48:02;3.17;;;0.70;;
30647;SDS011;17683;53.360;9.736;2023-10-31T11:50:30;4.32;;;0.80;;
30647;SDS011;17683;53.360;9.736;2023-10-31T11:53:00;3.63;;;0.55;;
30647;SDS011;17683;53.360;9.736;2023-10-31T11:55:27;1.13;;;0.40;;
30647;SDS011;17683;53.360;9.736;2023-10-31T11:57:53;1.50;;;0.47;;
30647;SDS011;17683;53.360;9.736;2023-10-31T12:00:23;0.43;;;0.40;;
30647;SDS011;17683;53.360;9.736;2023-10-31T12:02:58;1.75;;;0.30;;
30647;SDS011;17683;53.360;9.736;2023-10-31T12:05:27;4.95;;;1.15;;
30647;SDS011;17683;53.360;9.736;2023-10-31T12:07:53;2.13;;;0.65;;
30647;SDS011;17683;53.360;9.736;2023-10-31T12:10:24;0.50;;;0.50;;
30647;SDS011;17683;53.360;9.736;2023-10-31T12:12:52;3.10;;;0.80;;
30647;SDS011;17683;53.360;9.736;2023-10-31T12:15:18;0.65;;;0.65;;
30647;SDS011;17683;53.360;9.736;2023-10-31T12:17:44;1.00;;;0.65;;
30647;SDS011;17683;53.360;9.736;2023-10-31T12:20:10;2.05;;;0.50;;
30647;SDS011;17683;53.360;9.736;2023-10-31T12:22:36;1.75;;;0.63;;
30647;SDS011;17683;53.360;9.736;2023-10-31T12:25:02;1.45;;;0.60;;
30647;SDS011;17683;53.360;9.736;2023-10-31T12:27:42;3.33;;;0.77;;
30647;SDS011;17683;53.360;9.736;2023-10-31T12:30:09;2.53;;;0.50;;
30647;SDS011;17683;53.360;9.736;2023-10-31T12:32:37;1.08;;;0.47;;
30647;SDS011;17683;53.360;9.736;2023-10-31T12:35:03;2.75;;;0.75;;
30647;SDS011;17683;53.360;9.736;2023-10-31T12:37:29;3.78;;;2.17;;
30647;SDS011;17683;53.360;9.736;2023-10-31T12:39:55;1.15;;;0.50;;
30647;SDS011;17683;53.360;9.736;2023-10-31T12:42:22;3.70;;;0.98;;
30647;SDS011;17683;53.360;9.736;2023-10-31T12:44:54;1.20;;;0.82;;
30647;SDS011;17683;53.360;9.736;2023-10-31T12:47:21;1.20;;;0.70;;
30647;SDS011;17683;53.360;9.736;2023-10-31T12:49:47;2.33;;;0.47;;
30647;SDS011;17683;53.360;9.736;2023-10-31T12:52:13;0.95;;;0.50;;
30647;SDS011;17683;53.360;9.736;2023-10-31T12:54:38;2.30;;;0.77;;
30647;SDS011;17683;53.360;9.736;2023-10-31T12:57:07;1.90;;;0.55;;
30647;SDS011;17683;53.360;9.736;2023-10-31T12:59:35;2.10;;;0.82;;
30647;SDS011;17683;53.360;9.736;2023-10-31T13:02:02;2.72;;;0.80;;
30647;SDS011;17683;53.360;9.736;2023-10-31T13:04:29;2.45;;;0.70;;
30647;SDS011;17683;53.360;9.736;2023-10-31T13:09:33;1.42;;;0.77;;
30647;SDS011;17683;53.360;9.736;2023-10-31T13:12:01;6.25;;;0.98;;
30647;SDS011;17683;53.360;9.736;2023-10-31T13:14:31;6.03;;;1.30;;
30647;SDS011;17683;53.360;9.736;2023-10-31T13:16:57;2.20;;;0.82;;
30647;SDS011;17683;53.360;9.736;2023-10-31T13:19:24;1.70;;;0.70;;
30647;SDS011;17683;53.360;9.736;2023-10-31T13:21:49;4.60;;;1.95;;
30647;SDS011;17683;53.360;9.736;2023-10-31T13:24:16;1.65;;;0.93;;
30647;SDS011;17683;53.360;9.736;2023-10-31T13:26:41;7.60;;;3.22;;
30647;SDS011;17683;53.360;9.736;2023-10-31T13:29:09;6.93;;;3.38;;
30647;SDS011;17683;53.360;9.736;2023-10-31T13:31:36;3.83;;;1.90;;
30647;SDS011;17683;53.360;9.736;2023-10-31T13:34:02;1.77;;;1.25;;
30647;SDS011;17683;53.360;9.736;2023-10-31T13:36:28;4.38;;;1.83;;
30647;SDS011;17683;53.360;9.736;2023-10-31T13:38:54;2.38;;;1.30;;
30647;SDS011;17683;53.360;9.736;2023-10-31T13:41:20;3.60;;;1.38;;
30647;SDS011;17683;53.360;9.736;2023-10-31T13:43:46;1.58;;;1.15;;
30647;SDS011;17683;53.360;9.736;2023-10-31T13:46:13;3.55;;;1.40;;
30647;SDS011;17683;53.360;9.736;2023-10-31T13:48:39;2.17;;;1.05;;
30647;SDS011;17683;53.360;9.736;2023-10-31T13:51:21;3.35;;;1.20;;
30647;SDS011;17683;53.360;9.736;2023-10-31T13:53:47;3.10;;;1.20;;
30647;SDS011;17683;53.360;9.736;2023-10-31T13:56:14;2.47;;;1.00;;
30647;SDS011;17683;53.360;9.736;2023-10-31T13:58:40;2.25;;;1.20;;
30647;SDS011;17683;53.360;9.736;2023-10-31T14:01:05;2.78;;;1.10;;
30647;SDS011;17683;53.360;9.736;2023-10-31T14:03:31;2.20;;;1.25;;
30647;SDS011;17683;53.360;9.736;2023-10-31T14:05:57;1.48;;;0.82;;
30647;SDS011;17683;53.360;9.736;2023-10-31T14:08:22;1.77;;;1.23;;
30647;SDS011;17683;53.360;9.736;2023-10-31T14:10:48;1.85;;;0.82;;
30647;SDS011;17683;53.360;9.736;2023-10-31T14:13:14;3.55;;;1.27;;
30647;SDS011;17683;53.360;9.736;2023-10-31T14:15:40;1.95;;;1.13;;
30647;SDS011;17683;53.360;9.736;2023-10-31T14:18:06;8.48;;;1.75;;
30647;SDS011;17683;53.360;9.736;2023-10-31T14:20:32;3.85;;;1.10;;
30647;SDS011;17683;53.360;9.736;2023-10-31T14:22:58;3.72;;;0.60;;
30647;SDS011;17683;53.360;9.736;2023-10-31T14:25:24;2.88;;;0.80;;
30647;SDS011;17683;53.360;9.736;2023-10-31T14:27:49;2.15;;;0.82;;
30647;SDS011;17683;53.360;9.736;2023-10-31T14:30:15;3.58;;;0.63;;
30647;SDS011;17683;53.360;9.736;2023-10-31T14:32:41;1.52;;;0.60;;
30647;SDS011;17683;53.360;9.736;2023-10-31T14:35:07;4.88;;;0.90;;
30647;SDS011;17683;53.360;9.736;2023-10-31T14:37:33;1.08;;;0.88;;
30647;SDS011;17683;53.360;9.736;2023-10-31T14:40:00;2.47;;;0.75;;
30647;SDS011;17683;53.360;9.736;2023-10-31T14:42:28;2.10;;;0.77;;
30647;SDS011;17683;53.360;9.736;2023-10-31T14:44:53;1.73;;;0.80;;
30647;SDS011;17683;53.360;9.736;2023-10-31T14:47:21;3.42;;;0.70;;
30647;SDS011;17683;53.360;9.736;2023-10-31T14:49:47;4.35;;;0.82;;
30647;SDS011;17683;53.360;9.736;2023-10-31T14:52:13;3.45;;;0.70;;
30647;SDS011;17683;53.360;9.736;2023-10-31T14:54:38;1.55;;;0.82;;